Tiempo atmosférico en la estación meteorológica de Sant Jaume d'Enveja, Tarragona (1 m.)



Fecha
DESCASC
Temp. máxima en grados centígrados (hora)
DESCASC
Temp. mínima en grados centígrados (hora)
DESCASC
Temp. media en grados centígrados
DESCASC
Racha de viento máxima en m/sg (hora)
DESCASC
Velocidad máxima media en intervalos de 10 minutos(hora)
DESCASC
Precipitaciones diarias en mm
DESCASC
Precipitaciones de 00:00 a 06:00 en mm
DESCASC
Precipitaciones de 06:00 a 12:00 en mm
DESCASC
Precipitaciones de 12:00 a 18:00 en mm
DESCASC
Precipitaciones de 18:00 a 24:00 en mm
DESCASC
10-10-2019 21.7 (00:10) 18.8 (05:40) 20.3 8.89 (01:10) 5 (10:20) 0 0 0 0 0
09-10-2019 24.7 (16:20) 21.2 (04:30) 23 6.67 (23:59) 4.72 (12:00) 0 0 0 0 0
08-10-2019 -- (--) -- (--) -- -- (--) -- (--) -- -- -- 0 0
07-10-2019 -- (--) -- (--) -- -- (--) -- (--) -- -- -- -- --
06-10-2019 -- (--) -- (--) -- -- (--) -- (--) -- -- -- -- --
05-10-2019 -- (--) -- (--) -- -- (--) -- (--) -- -- -- -- --
04-10-2019 -- (--) -- (--) -- -- (--) -- (--) -- -- -- -- --
03-10-2019 -- (--) -- (--) -- -- (--) -- (--) -- -- -- -- --
02-10-2019 -- (--) -- (--) -- -- (--) -- (--) -- -- -- -- --
01-10-2019 -- (--) -- (--) -- -- (--) -- (--) -- -- -- -- --
30-09-2019 -- (--) -- (--) -- -- (--) -- (--) -- -- -- -- --
29-09-2019 -- (--) -- (--) -- -- (--) -- (--) -- -- -- -- --
28-09-2019 -- (--) -- (--) -- -- (--) -- (--) -- -- -- -- --
27-09-2019 -- (--) -- (--) -- -- (--) -- (--) -- -- -- -- --
26-09-2019 -- (--) -- (--) -- -- (--) -- (--) -- -- -- -- --
25-09-2019 -- (--) -- (--) -- -- (--) -- (--) -- -- -- -- --
24-09-2019 -- (--) -- (--) -- -- (--) -- (--) -- -- -- -- --
23-09-2019 -- (--) -- (--) -- -- (--) -- (--) -- -- -- -- --
22-09-2019 -- (--) -- (--) -- -- (--) -- (--) -- -- -- -- --
21-09-2019 -- (--) -- (--) -- -- (--) -- (--) -- 0.8 -- -- --
20-09-2019 25.3 (13:40) 22 (00:00) 23.6 6.67 (12:40) 2.78 (18:30) 0 0 0 0 0
19-09-2019 26.1 (13:20) 19.8 (00:00) 22.9 7.78 (15:40) 5 (15:10) 0 0 0 0 0
18-09-2019 30 (14:10) 18.4 (00:00) 24.2 6.94 (10:50) 4.72 (15:00) 0 0 0 0 0
17-09-2019 28.4 (13:20) 17.9 (00:00) 23.1 6.39 (15:30) 4.72 (15:30) 0 0 0 0 0
16-09-2019 26.2 (13:00) 19.2 (00:00) 22.7 6.39 (14:30) 3.06 (15:00) 0 0 0 0 0
15-09-2019 26 (15:00) 22 (00:00) 24 10.56 (14:00) 4.44 (15:20) 0 0 0 0 0
14-09-2019 25.8 (16:30) 17.4 (00:00) 21.6 10.56 (13:00) 4.17 (13:20) 0 0 0 0 0

Gráficas

Temp. máximas Temp. mínimas Temp. medias Precipitaciones Rachas de viento máximas Velocidades máximas media en intervalos de 10 minutos

Datos horarios

Fecha y hora oficial Temperatura (ºC) Velocidad del viento (km/h) Dirección del viento Racha (km/h) Dirección de racha Precipitación (mm) Presión (hPa) Tendencia (hPa) Humedad (%)
2019-10-13 23:00:00 21.6 0 Calma 7 Nordeste 0 -- -- 94
2019-10-13 22:00:00 21.8 0 Calma -- -- 0 -- -- 93
2019-10-13 21:00:00 21.4 0 Calma 0 Calma 0 -- -- 92
2019-10-13 20:00:00 22.1 0 Calma 4 Sudoeste 0 -- -- 91
2019-10-13 19:00:00 23 2 Sudeste 10 Sudeste 0 -- -- 86
2019-10-13 18:00:00 23.9 8 Sudeste 17 Sudeste 0 -- -- 83
2019-10-13 17:00:00 24 10 Sudeste 19 Sudeste 0 -- -- 83
2019-10-13 16:00:00 24.4 2 Este 15 Sudeste 0 -- -- 83
2019-10-13 15:00:00 24.2 0 Calma 14 Este 0 -- -- 82
2019-10-13 14:00:00 24.4 2 Este 18 Sudeste 0 -- -- 83
2019-10-13 13:00:00 24 2 Este 14 Nordeste 0 -- -- 87
2019-10-13 12:00:00 23.7 0 Calma 13 Nordeste 0 -- -- 84
2019-10-13 11:00:00 23.6 3 Este 14 Nordeste 0 -- -- 86
2019-10-13 10:00:00 23 0 Calma 10 Nordeste 0 -- -- 90
2019-10-13 09:00:00 21.7 0 Calma 5 Nordeste 0 -- -- 94
2019-10-13 08:00:00 20.9 4 Sudeste 11 Sur 0 -- -- 94
2019-10-13 07:00:00 21.2 0 Calma 9 Sudeste 0 -- -- 94
2019-10-13 06:00:00 21.5 0 Calma 2 Sudeste 0 -- -- 94
2019-10-13 05:00:00 21.3 0 Calma 8 Sur 0 -- -- 94
2019-10-13 04:00:00 21.4 0 Calma 18 Sudeste 0 -- -- 92
2019-10-13 03:00:00 21.7 6 Sudeste 18 Sudeste 0 -- -- 93
2019-10-13 02:00:00 21.8 2 Sudeste 8 Este 0 -- -- 94
2019-10-13 01:00:00 21.6 0 Calma -- -- 0 -- -- 94
2019-10-13 00:00:00 21.5 0 Calma 6 Sudeste 0 -- -- 93
2019-10-12 23:00:00 21.8 3 Sudeste 8 Sudeste 0 -- -- 92
2019-10-12 22:00:00 21.9 5 Sudeste 12 Sudeste 0 -- -- 92
2019-10-12 21:00:00 22 0 Calma 10 Sudeste 0 -- -- 91
2019-10-12 20:00:00 22.3 0 Calma 12 Sudeste 0 -- -- 89
2019-10-12 19:00:00 22.5 3 Sudeste 17 Este 0 -- -- 86
2019-10-12 18:00:00 23.1 12 Sudeste 22 Este 0 -- -- 82
2019-10-12 17:00:00 23.7 16 Sudeste 24 Sudeste 0 -- -- 80
2019-10-12 16:00:00 24.2 9 Este 24 Este 0 -- -- 78
2019-10-12 15:00:00 23.2 14 Sudeste 23 Sudeste 0 -- -- 82
2019-10-12 14:00:00 24.5 16 Sudeste 24 Sudeste 0 -- -- 80
2019-10-12 13:00:00 24.5 18 Sudeste 24 Sudeste 0 -- -- 78
2019-10-12 12:00:00 24.3 16 Sudeste 24 Sur 0 -- -- 77
2019-10-12 11:00:00 23.3 15 Sur 23 Sur 0 -- -- 80
2019-10-12 10:00:00 22 7 Sur 19 Sur 0 -- -- 94
2019-10-12 09:00:00 20.6 0 Calma -- -- 0 -- -- 94
2019-10-12 08:00:00 20.7 0 Calma -- -- 0 -- -- 94
2019-10-12 07:00:00 20.8 0 Calma 5 Sudoeste 0 -- -- 94
2019-10-12 06:00:00 20.6 0 Calma 8 Sur 0 -- -- 94
2019-10-12 05:00:00 20.6 8 Sur 10 Sur 0 -- -- 94
2019-10-12 04:00:00 20.8 5 Sur 8 Sudoeste 0 -- -- 93
2019-10-12 03:00:00 21.5 4 Sudoeste 19 Sur 0 -- -- 93
2019-10-12 02:00:00 21.6 13 Sur 19 Sur 0 -- -- 93
2019-10-12 01:00:00 21.7 13 Sur 19 Sur 0 -- -- 92
2019-10-12 00:00:00 21.9 14 Sur 22 Sur 0 -- -- 92
2019-10-11 23:00:00 22 15 Sur 20 Sur 0 -- -- 91
2019-10-11 22:00:00 22.2 14 Sur 22 Sur 0 -- -- 89
2019-10-11 21:00:00 22.2 15 Sur 24 Sur 0 -- -- 89
2019-10-11 20:00:00 22.3 17 Sur 29 Sur 0 -- -- 88
2019-10-11 19:00:00 22.6 17 Sur 27 Sur 0 -- -- 83
2019-10-11 18:00:00 23.7 22 Sur 32 Sur 0 -- -- 81
2019-10-11 17:00:00 24 23 Sur 32 Sur 0 -- -- 80
2019-10-11 16:00:00 24.2 23 Sur 31 Sur 0 -- -- 80
2019-10-11 15:00:00 23.9 19 Sur 27 Sur 0 -- -- 80
2019-10-11 14:00:00 23.7 9 Sur 15 Sur 0 -- -- 80
2019-10-11 13:00:00 22 0 Calma -- -- 0 -- -- 83
2019-10-11 12:00:00 21.8 0 Calma 3 Oeste 0 -- -- 82
2019-10-11 11:00:00 21 0 Calma 2 Noroeste 0 -- -- 87
2019-10-11 10:00:00 19.9 2 Noroeste 7 Oeste 0 -- -- 92
2019-10-11 09:00:00 19.3 0 Calma 5 Oeste 0 -- -- 93
2019-10-11 08:00:00 18.8 0 Calma 6 Noroeste 0 -- -- 93
2019-10-11 07:00:00 19 4 Noroeste 11 Oeste 0 -- -- 92
2019-10-11 06:00:00 19.2 2 Noroeste 8 Noroeste 0 -- -- 92
2019-10-11 05:00:00 19.8 0 Calma 6 Oeste 0 -- -- 92
2019-10-11 04:00:00 20 0 Calma 5 Nordeste 0 -- -- 92
2019-10-11 03:00:00 19.6 0 Calma 12 Norte 0 -- -- 92
2019-10-11 02:00:00 19.9 6 Noroeste 18 Nordeste 0 -- -- 89
2019-10-11 01:00:00 20.4 2 Nordeste 16 Norte 0 -- -- 91
2019-10-11 00:00:00 20 2 Nordeste 14 Nordeste 0 -- -- 90
2019-10-10 23:00:00 20 4 Nordeste 13 Nordeste 0 -- -- 89
2019-10-10 22:00:00 20.2 5 Nordeste 17 Nordeste 0 -- -- 89
2019-10-10 21:00:00 20.3 6 Nordeste 17 Nordeste 0 -- -- 89
2019-10-10 20:00:00 20.6 3 Nordeste 20 Nordeste 0 -- -- 86
2019-10-10 19:00:00 20.4 5 Nordeste 18 Nordeste 0 -- -- 84
2019-10-10 18:00:00 20.3 6 Nordeste 18 Nordeste 0 -- -- 82
2019-10-10 17:00:00 20.3 9 Nordeste 21 Nordeste 0 -- -- 81
2019-10-10 16:00:00 20.5 6 Nordeste 16 Nordeste 0 -- -- 77
2019-10-10 15:00:00 20.2 7 Nordeste 17 Nordeste 0 -- -- 66
2019-10-10 14:00:00 20.1 7 Nordeste 17 Nordeste 0 -- -- 61
2019-10-10 13:00:00 20.4 4 Norte 27 Norte 0 -- -- 55
2019-10-10 12:00:00 20.1 15 Norte 28 Norte 0 -- -- 56
2019-10-10 11:00:00 19.8 18 Norte 28 Norte 0 -- -- 55
2019-10-10 10:00:00 19.9 6 Norte 27 Norte 0 -- -- 57
2019-10-10 09:00:00 19.5 13 Norte 23 Norte 0 -- -- 56
2019-10-10 08:00:00 19.6 12 Norte 20 Norte 0 -- -- 58
2019-10-10 07:00:00 19.7 4 Nordeste 14 Nordeste 0 -- -- 70
2019-10-10 06:00:00 19.2 7 Nordeste 19 Este 0 -- -- 71
2019-10-10 05:00:00 19.6 9 Nordeste 21 Nordeste 0 -- -- 78
2019-10-10 04:00:00 19.4 10 Nordeste 23 Nordeste 0 -- -- 80
2019-10-10 03:00:00 20.1 9 Nordeste 30 Nordeste 0 -- -- 85
2019-10-10 02:00:00 20 9 Nordeste 32 Norte 0 -- -- 87
2019-10-10 01:00:00 20.7 9 Nordeste 29 Nordeste 0 -- -- 88
2019-10-10 00:00:00 21.2 12 Norte 24 Norte 0 -- -- 89
2019-10-09 23:00:00 21.8 0 Calma -- -- 0 -- -- 92
2019-10-09 22:00:00 21.5 0 Calma -- -- 0 -- -- 92
2019-10-09 21:00:00 21.7 0 Calma 8 Sur 0 -- -- 89
2019-10-09 20:00:00 22.2 6 Sur 14 Sur 0 -- -- 88
2019-10-09 19:00:00 22.9 11 Sur 18 Sur 0 -- -- 82
2019-10-09 18:00:00 23.8 13 Sur 20 Sur 0 -- -- 80
2019-10-09 17:00:00 24.4 14 Sur 21 Sur 0 -- -- 78
2019-10-09 16:00:00 24.4 14 Sur 19 Sur 0 -- -- 77
2019-10-09 15:00:00 22.9 0 Calma 10 Sudeste 0 -- -- 81
2019-10-09 14:00:00 23.3 10 Sur 16 Sur 0 -- -- 81
2019-10-09 13:00:00 23.5 12 Sur 21 Sur 0 -- -- 81
2019-10-09 12:00:00 24.2 17 Sur 22 Sur 0 -- -- 78
2019-10-09 11:00:00 22.9 4 Sudoeste 13 Sur 0 -- -- 83
2019-10-09 10:00:00 22.5 8 Sur 14 Sur 0 -- -- 85
2019-10-09 09:00:00 21.9 11 Sur 17 Sur 0 -- -- 87
2019-10-09 08:00:00 21.7 12 Sur 19 Sur 0 -- -- 86
2019-10-09 07:00:00 21.6 13 Sur 19 Sur 0 -- -- 86
2019-10-09 06:00:00 21.5 14 Sur 21 Sur 0 -- -- 88
2019-10-09 05:00:00 21.3 13 Sur 19 Sur 0 -- -- 91
2019-10-09 04:00:00 21.4 11 Sur 18 Sur 0 -- -- 92
2019-10-09 03:00:00 21.5 12 Sur 17 Sur 0 -- -- 92
2019-10-09 02:00:00 21.7 10 Sur 16 Sur 0 -- -- 91
2019-10-09 01:00:00 21.6 12 Sur 20 Sur 0 -- -- 91
2019-10-09 00:00:00 21.9 14 Sur 23 Sudoeste 0 -- -- 89
2019-10-08 23:00:00 21.8 13 Sur 21 Sur 0 -- -- 89
2019-10-08 22:00:00 22 13 Sur 24 Sur 0 -- -- 89
2019-10-08 21:00:00 22.2 17 Sur 26 Sudoeste 0 -- -- 87
2019-10-08 20:00:00 22.5 17 Sur 28 Sudoeste 0 -- -- 87
2019-10-08 19:00:00 23.1 19 Sur 31 Sudoeste 0 -- -- 83
2019-10-08 18:00:00 23.7 21 Sur 31 Sudoeste 0 -- -- 81
2019-10-08 17:00:00 24.2 21 Sur 31 Sur 0 -- -- 76
2019-10-08 16:00:00 24.8 21 Sur 28 Sur 0 -- -- 71
2019-10-08 15:00:00 24.3 20 Sur 28 Sur 0 -- -- 71
2019-10-08 14:00:00 24.2 14 Sur 20 Sur 0 -- -- 73
2019-10-08 13:00:00 24 11 Sur 17 Sur 0 -- -- 73
2019-10-08 12:00:00 23.9 5 Sur -- -- -- -- -- 72
2019-10-08 11:00:00 -- -- -- -- -- -- -- -- --
2019-10-08 10:00:00 -- -- -- -- -- -- -- -- --
2019-10-08 09:00:00 -- -- -- -- -- -- -- -- --
2019-10-08 08:00:00 -- -- -- -- -- -- -- -- --
2019-10-08 07:00:00 -- -- -- -- -- -- -- -- --
2019-10-08 06:00:00 -- -- -- -- -- -- -- -- --
2019-10-08 05:00:00 -- -- -- -- -- -- -- -- --
2019-10-08 04:00:00 -- -- -- -- -- -- -- -- --
2019-10-08 03:00:00 -- -- -- -- -- -- -- -- --
2019-10-08 02:00:00 -- -- -- -- -- -- -- -- --
2019-10-08 01:00:00 -- -- -- -- -- -- -- -- --
2019-10-08 00:00:00 -- -- -- -- -- -- -- -- --
2019-10-07 23:00:00 -- -- -- -- -- -- -- -- --
2019-10-07 22:00:00 -- -- -- -- -- -- -- -- --
2019-10-07 21:00:00 -- -- -- -- -- -- -- -- --
2019-10-07 20:00:00 -- -- -- -- -- -- -- -- --
2019-10-07 19:00:00 -- -- -- -- -- -- -- -- --
2019-10-07 18:00:00 -- -- -- -- -- -- -- -- --
2019-10-07 17:00:00 -- -- -- -- -- -- -- -- --
2019-10-07 16:00:00 -- -- -- -- -- -- -- -- --
2019-10-07 15:00:00 -- -- -- -- -- -- -- -- --
2019-10-07 14:00:00 -- -- -- -- -- -- -- -- --
2019-10-07 13:00:00 -- -- -- -- -- -- -- -- --
2019-10-07 12:00:00 -- -- -- -- -- -- -- -- --
2019-10-07 11:00:00 -- -- -- -- -- -- -- -- --
2019-10-07 10:00:00 -- -- -- -- -- -- -- -- --
2019-10-07 09:00:00 -- -- -- -- -- -- -- -- --
2019-10-07 08:00:00 -- -- -- -- -- -- -- -- --
2019-10-07 07:00:00 -- -- -- -- -- -- -- -- --
2019-10-07 06:00:00 -- -- -- -- -- -- -- -- --
2019-10-07 05:00:00 -- -- -- -- -- -- -- -- --
2019-10-07 04:00:00 -- -- -- -- -- -- -- -- --
2019-10-07 03:00:00 -- -- -- -- -- -- -- -- --
2019-10-07 02:00:00 -- -- -- -- -- -- -- -- --
2019-10-07 01:00:00 -- -- -- -- -- -- -- -- --
2019-10-07 00:00:00 -- -- -- -- -- -- -- -- --
2019-10-06 23:00:00 -- -- -- -- -- -- -- -- --
2019-10-06 22:00:00 -- -- -- -- -- -- -- -- --
2019-10-06 21:00:00 -- -- -- -- -- -- -- -- --
2019-10-06 20:00:00 -- -- -- -- -- -- -- -- --
2019-10-06 19:00:00 -- -- -- -- -- -- -- -- --
2019-10-06 18:00:00 -- -- -- -- -- -- -- -- --
2019-10-06 17:00:00 -- -- -- -- -- -- -- -- --
2019-10-06 16:00:00 -- -- -- -- -- -- -- -- --
2019-10-06 15:00:00 -- -- -- -- -- -- -- -- --
2019-10-06 14:00:00 -- -- -- -- -- -- -- -- --
2019-10-06 13:00:00 -- -- -- -- -- -- -- -- --
2019-10-06 12:00:00 -- -- -- -- -- -- -- -- --
2019-10-06 11:00:00 -- -- -- -- -- -- -- -- --
2019-10-06 10:00:00 -- -- -- -- -- -- -- -- --
2019-10-06 09:00:00 -- -- -- -- -- -- -- -- --
2019-10-06 08:00:00 -- -- -- -- -- -- -- -- --
2019-10-06 07:00:00 -- -- -- -- -- -- -- -- --
2019-10-06 06:00:00 -- -- -- -- -- -- -- -- --
2019-10-06 05:00:00 -- -- -- -- -- -- -- -- --
2019-10-06 04:00:00 -- -- -- -- -- -- -- -- --
2019-10-06 03:00:00 -- -- -- -- -- -- -- -- --
2019-10-06 02:00:00 -- -- -- -- -- -- -- -- --
2019-10-06 01:00:00 -- -- -- -- -- -- -- -- --
2019-10-06 00:00:00 -- -- -- -- -- -- -- -- --
2019-10-05 23:00:00 -- -- -- -- -- -- -- -- --
2019-10-05 22:00:00 -- -- -- -- -- -- -- -- --
2019-10-05 21:00:00 -- -- -- -- -- -- -- -- --
2019-10-05 20:00:00 -- -- -- -- -- -- -- -- --
2019-10-05 19:00:00 -- -- -- -- -- -- -- -- --
2019-10-05 18:00:00 -- -- -- -- -- -- -- -- --
2019-10-05 17:00:00 -- -- -- -- -- -- -- -- --
2019-10-05 16:00:00 -- -- -- -- -- -- -- -- --
2019-10-05 15:00:00 -- -- -- -- -- -- -- -- --
2019-10-05 14:00:00 -- -- -- -- -- -- -- -- --
2019-10-05 13:00:00 -- -- -- -- -- -- -- -- --
2019-10-05 12:00:00 -- -- -- -- -- -- -- -- --
2019-10-05 11:00:00 -- -- -- -- -- -- -- -- --
2019-10-05 10:00:00 -- -- -- -- -- -- -- -- --
2019-10-05 09:00:00 -- -- -- -- -- -- -- -- --
2019-10-05 08:00:00 -- -- -- -- -- -- -- -- --
2019-10-05 07:00:00 -- -- -- -- -- -- -- -- --
2019-10-05 06:00:00 -- -- -- -- -- -- -- -- --
2019-10-05 05:00:00 -- -- -- -- -- -- -- -- --
2019-10-05 04:00:00 -- -- -- -- -- -- -- -- --
2019-10-05 03:00:00 -- -- -- -- -- -- -- -- --
2019-10-05 02:00:00 -- -- -- -- -- -- -- -- --
2019-10-05 01:00:00 -- -- -- -- -- -- -- -- --
2019-10-05 00:00:00 -- -- -- -- -- -- -- -- --
2019-10-04 23:00:00 -- -- -- -- -- -- -- -- --
2019-10-04 22:00:00 -- -- -- -- -- -- -- -- --
2019-10-04 21:00:00 -- -- -- -- -- -- -- -- --
2019-10-04 20:00:00 -- -- -- -- -- -- -- -- --
2019-10-04 19:00:00 -- -- -- -- -- -- -- -- --
2019-10-04 18:00:00 -- -- -- -- -- -- -- -- --
2019-10-04 17:00:00 -- -- -- -- -- -- -- -- --
2019-10-04 16:00:00 -- -- -- -- -- -- -- -- --
2019-10-04 15:00:00 -- -- -- -- -- -- -- -- --
2019-10-04 14:00:00 -- -- -- -- -- -- -- -- --
2019-10-04 13:00:00 -- -- -- -- -- -- -- -- --
2019-10-04 12:00:00 -- -- -- -- -- -- -- -- --
2019-10-04 11:00:00 -- -- -- -- -- -- -- -- --
2019-10-04 10:00:00 -- -- -- -- -- -- -- -- --
2019-10-04 09:00:00 -- -- -- -- -- -- -- -- --
2019-10-04 08:00:00 -- -- -- -- -- -- -- -- --
2019-10-04 07:00:00 -- -- -- -- -- -- -- -- --
2019-10-04 06:00:00 -- -- -- -- -- -- -- -- --
2019-10-04 05:00:00 -- -- -- -- -- -- -- -- --
2019-10-04 04:00:00 -- -- -- -- -- -- -- -- --
2019-10-04 03:00:00 -- -- -- -- -- -- -- -- --
2019-10-04 02:00:00 -- -- -- -- -- -- -- -- --
2019-10-04 01:00:00 -- -- -- -- -- -- -- -- --
2019-10-04 00:00:00 -- -- -- -- -- -- -- -- --
2019-10-03 23:00:00 -- -- -- -- -- -- -- -- --
2019-10-03 22:00:00 -- -- -- -- -- -- -- -- --
2019-10-03 21:00:00 -- -- -- -- -- -- -- -- --
2019-10-03 20:00:00 -- -- -- -- -- -- -- -- --
2019-10-03 19:00:00 -- -- -- -- -- -- -- -- --
2019-10-03 18:00:00 -- -- -- -- -- -- -- -- --
2019-10-03 17:00:00 -- -- -- -- -- -- -- -- --
2019-10-03 16:00:00 -- -- -- -- -- -- -- -- --
2019-10-03 15:00:00 -- -- -- -- -- -- -- -- --
2019-10-03 14:00:00 -- -- -- -- -- -- -- -- --
2019-10-03 13:00:00 -- -- -- -- -- -- -- -- --
2019-10-03 12:00:00 -- -- -- -- -- -- -- -- --
2019-10-03 11:00:00 -- -- -- -- -- -- -- -- --
2019-10-03 10:00:00 -- -- -- -- -- -- -- -- --
2019-10-03 09:00:00 -- -- -- -- -- -- -- -- --
2019-10-03 08:00:00 -- -- -- -- -- -- -- -- --
2019-10-03 07:00:00 -- -- -- -- -- -- -- -- --
2019-10-03 06:00:00 -- -- -- -- -- -- -- -- --
2019-10-03 05:00:00 -- -- -- -- -- -- -- -- --
2019-10-03 04:00:00 -- -- -- -- -- -- -- -- --
2019-10-03 03:00:00 -- -- -- -- -- -- -- -- --
2019-10-03 02:00:00 -- -- -- -- -- -- -- -- --
2019-10-03 01:00:00 -- -- -- -- -- -- -- -- --
2019-10-03 00:00:00 -- -- -- -- -- -- -- -- --
2019-10-02 23:00:00 -- -- -- -- -- -- -- -- --
2019-10-02 22:00:00 -- -- -- -- -- -- -- -- --
2019-10-02 21:00:00 -- -- -- -- -- -- -- -- --
2019-10-02 20:00:00 -- -- -- -- -- -- -- -- --
2019-10-02 19:00:00 -- -- -- -- -- -- -- -- --
2019-10-02 18:00:00 -- -- -- -- -- -- -- -- --
2019-10-02 17:00:00 -- -- -- -- -- -- -- -- --
2019-10-02 16:00:00 -- -- -- -- -- -- -- -- --
2019-10-02 15:00:00 -- -- -- -- -- -- -- -- --
2019-10-02 14:00:00 -- -- -- -- -- -- -- -- --
2019-10-02 13:00:00 -- -- -- -- -- -- -- -- --
2019-10-02 12:00:00 -- -- -- -- -- -- -- -- --
2019-10-02 11:00:00 -- -- -- -- -- -- -- -- --
2019-10-02 10:00:00 -- -- -- -- -- -- -- -- --
2019-10-02 09:00:00 -- -- -- -- -- -- -- -- --
2019-10-02 08:00:00 -- -- -- -- -- -- -- -- --
2019-10-02 07:00:00 -- -- -- -- -- -- -- -- --
2019-10-02 06:00:00 -- -- -- -- -- -- -- -- --
2019-10-02 05:00:00 -- -- -- -- -- -- -- -- --
2019-10-02 04:00:00 -- -- -- -- -- -- -- -- --
2019-10-02 03:00:00 -- -- -- -- -- -- -- -- --
2019-10-02 02:00:00 -- -- -- -- -- -- -- -- --
2019-10-02 01:00:00 -- -- -- -- -- -- -- -- --
2019-10-02 00:00:00 -- -- -- -- -- -- -- -- --
2019-10-01 23:00:00 -- -- -- -- -- -- -- -- --
2019-10-01 22:00:00 -- -- -- -- -- -- -- -- --
2019-10-01 21:00:00 -- -- -- -- -- -- -- -- --
2019-10-01 20:00:00 -- -- -- -- -- -- -- -- --
2019-10-01 19:00:00 -- -- -- -- -- -- -- -- --
2019-10-01 18:00:00 -- -- -- -- -- -- -- -- --
2019-10-01 17:00:00 -- -- -- -- -- -- -- -- --
2019-10-01 16:00:00 -- -- -- -- -- -- -- -- --
2019-10-01 15:00:00 -- -- -- -- -- -- -- -- --
2019-10-01 14:00:00 -- -- -- -- -- -- -- -- --
2019-10-01 13:00:00 -- -- -- -- -- -- -- -- --
2019-10-01 12:00:00 -- -- -- -- -- -- -- -- --
2019-10-01 11:00:00 -- -- -- -- -- -- -- -- --
2019-10-01 10:00:00 -- -- -- -- -- -- -- -- --
2019-10-01 09:00:00 -- -- -- -- -- -- -- -- --
2019-10-01 08:00:00 -- -- -- -- -- -- -- -- --
2019-10-01 07:00:00 -- -- -- -- -- -- -- -- --
2019-10-01 06:00:00 -- -- -- -- -- -- -- -- --
2019-10-01 05:00:00 -- -- -- -- -- -- -- -- --
2019-10-01 04:00:00 -- -- -- -- -- -- -- -- --
2019-10-01 03:00:00 -- -- -- -- -- -- -- -- --
2019-10-01 02:00:00 -- -- -- -- -- -- -- -- --
2019-10-01 01:00:00 -- -- -- -- -- -- -- -- --
2019-10-01 00:00:00 -- -- -- -- -- -- -- -- --
2019-09-30 23:00:00 -- -- -- -- -- -- -- -- --
2019-09-30 22:00:00 -- -- -- -- -- -- -- -- --
2019-09-30 21:00:00 -- -- -- -- -- -- -- -- --
2019-09-30 20:00:00 -- -- -- -- -- -- -- -- --
2019-09-30 19:00:00 -- -- -- -- -- -- -- -- --
2019-09-30 18:00:00 -- -- -- -- -- -- -- -- --
2019-09-30 17:00:00 -- -- -- -- -- -- -- -- --
2019-09-30 16:00:00 -- -- -- -- -- -- -- -- --
2019-09-30 15:00:00 -- -- -- -- -- -- -- -- --
2019-09-30 14:00:00 -- -- -- -- -- -- -- -- --
2019-09-30 13:00:00 -- -- -- -- -- -- -- -- --
2019-09-30 12:00:00 -- -- -- -- -- -- -- -- --
2019-09-30 11:00:00 -- -- -- -- -- -- -- -- --
2019-09-30 10:00:00 -- -- -- -- -- -- -- -- --
2019-09-30 09:00:00 -- -- -- -- -- -- -- -- --
2019-09-30 08:00:00 -- -- -- -- -- -- -- -- --
2019-09-30 07:00:00 -- -- -- -- -- -- -- -- --
2019-09-30 06:00:00 -- -- -- -- -- -- -- -- --
2019-09-30 05:00:00 -- -- -- -- -- -- -- -- --
2019-09-30 04:00:00 -- -- -- -- -- -- -- -- --
2019-09-30 03:00:00 -- -- -- -- -- -- -- -- --
2019-09-30 02:00:00 -- -- -- -- -- -- -- -- --
2019-09-30 01:00:00 -- -- -- -- -- -- -- -- --
2019-09-30 00:00:00 -- -- -- -- -- -- -- -- --
2019-09-29 23:00:00 -- -- -- -- -- -- -- -- --
2019-09-29 22:00:00 -- -- -- -- -- -- -- -- --
2019-09-29 21:00:00 -- -- -- -- -- -- -- -- --
2019-09-29 20:00:00 -- -- -- -- -- -- -- -- --
2019-09-29 19:00:00 -- -- -- -- -- -- -- -- --
2019-09-29 18:00:00 -- -- -- -- -- -- -- -- --
2019-09-29 17:00:00 -- -- -- -- -- -- -- -- --
2019-09-29 16:00:00 -- -- -- -- -- -- -- -- --
2019-09-29 15:00:00 -- -- -- -- -- -- -- -- --
2019-09-29 14:00:00 -- -- -- -- -- -- -- -- --
2019-09-29 13:00:00 -- -- -- -- -- -- -- -- --
2019-09-29 12:00:00 -- -- -- -- -- -- -- -- --
2019-09-29 11:00:00 -- -- -- -- -- -- -- -- --
2019-09-29 10:00:00 -- -- -- -- -- -- -- -- --
2019-09-29 09:00:00 -- -- -- -- -- -- -- -- --
2019-09-29 08:00:00 -- -- -- -- -- -- -- -- --
2019-09-29 07:00:00 -- -- -- -- -- -- -- -- --
2019-09-29 06:00:00 -- -- -- -- -- -- -- -- --
2019-09-29 05:00:00 -- -- -- -- -- -- -- -- --
2019-09-29 04:00:00 -- -- -- -- -- -- -- -- --
2019-09-29 03:00:00 -- -- -- -- -- -- -- -- --
2019-09-29 02:00:00 -- -- -- -- -- -- -- -- --
2019-09-29 01:00:00 -- -- -- -- -- -- -- -- --
2019-09-29 00:00:00 -- -- -- -- -- -- -- -- --
2019-09-28 23:00:00 -- -- -- -- -- -- -- -- --
2019-09-28 22:00:00 -- -- -- -- -- -- -- -- --
2019-09-28 21:00:00 -- -- -- -- -- -- -- -- --
2019-09-28 20:00:00 -- -- -- -- -- -- -- -- --
2019-09-28 19:00:00 -- -- -- -- -- -- -- -- --
2019-09-28 18:00:00 -- -- -- -- -- -- -- -- --
2019-09-28 17:00:00 -- -- -- -- -- -- -- -- --
2019-09-28 16:00:00 -- -- -- -- -- -- -- -- --
2019-09-28 15:00:00 -- -- -- -- -- -- -- -- --
2019-09-28 14:00:00 -- -- -- -- -- -- -- -- --
2019-09-28 13:00:00 -- -- -- -- -- -- -- -- --
2019-09-28 12:00:00 -- -- -- -- -- -- -- -- --
2019-09-28 11:00:00 -- -- -- -- -- -- -- -- --
2019-09-28 10:00:00 -- -- -- -- -- -- -- -- --
2019-09-28 09:00:00 -- -- -- -- -- -- -- -- --
2019-09-28 08:00:00 -- -- -- -- -- -- -- -- --
2019-09-28 07:00:00 -- -- -- -- -- -- -- -- --
2019-09-28 06:00:00 -- -- -- -- -- -- -- -- --
2019-09-28 05:00:00 -- -- -- -- -- -- -- -- --
2019-09-28 04:00:00 -- -- -- -- -- -- -- -- --
2019-09-28 03:00:00 -- -- -- -- -- -- -- -- --
2019-09-28 02:00:00 -- -- -- -- -- -- -- -- --
2019-09-28 01:00:00 -- -- -- -- -- -- -- -- --
2019-09-28 00:00:00 -- -- -- -- -- -- -- -- --
2019-09-27 23:00:00 -- -- -- -- -- -- -- -- --
2019-09-27 22:00:00 -- -- -- -- -- -- -- -- --
2019-09-27 21:00:00 -- -- -- -- -- -- -- -- --
2019-09-27 20:00:00 -- -- -- -- -- -- -- -- --
2019-09-27 19:00:00 -- -- -- -- -- -- -- -- --
2019-09-27 18:00:00 -- -- -- -- -- -- -- -- --
2019-09-27 17:00:00 -- -- -- -- -- -- -- -- --
2019-09-27 16:00:00 -- -- -- -- -- -- -- -- --
2019-09-27 15:00:00 -- -- -- -- -- -- -- -- --
2019-09-27 14:00:00 -- -- -- -- -- -- -- -- --
2019-09-27 13:00:00 -- -- -- -- -- -- -- -- --
2019-09-27 12:00:00 -- -- -- -- -- -- -- -- --
2019-09-27 11:00:00 -- -- -- -- -- -- -- -- --
2019-09-27 10:00:00 -- -- -- -- -- -- -- -- --
2019-09-27 09:00:00 -- -- -- -- -- -- -- -- --
2019-09-27 08:00:00 -- -- -- -- -- -- -- -- --
2019-09-27 07:00:00 -- -- -- -- -- -- -- -- --
2019-09-27 06:00:00 -- -- -- -- -- -- -- -- --
2019-09-27 05:00:00 -- -- -- -- -- -- -- -- --
2019-09-27 04:00:00 -- -- -- -- -- -- -- -- --
2019-09-27 03:00:00 -- -- -- -- -- -- -- -- --
2019-09-27 02:00:00 -- -- -- -- -- -- -- -- --
2019-09-27 01:00:00 -- -- -- -- -- -- -- -- --
2019-09-27 00:00:00 -- -- -- -- -- -- -- -- --
2019-09-26 23:00:00 -- -- -- -- -- -- -- -- --
2019-09-26 22:00:00 -- -- -- -- -- -- -- -- --
2019-09-26 21:00:00 -- -- -- -- -- -- -- -- --
2019-09-26 20:00:00 -- -- -- -- -- -- -- -- --
2019-09-26 19:00:00 -- -- -- -- -- -- -- -- --
2019-09-26 18:00:00 -- -- -- -- -- -- -- -- --
2019-09-26 17:00:00 -- -- -- -- -- -- -- -- --
2019-09-26 16:00:00 -- -- -- -- -- -- -- -- --
2019-09-26 15:00:00 -- -- -- -- -- -- -- -- --
2019-09-26 14:00:00 -- -- -- -- -- -- -- -- --
2019-09-26 13:00:00 -- -- -- -- -- -- -- -- --
2019-09-26 12:00:00 -- -- -- -- -- -- -- -- --
2019-09-26 11:00:00 -- -- -- -- -- -- -- -- --
2019-09-26 10:00:00 -- -- -- -- -- -- -- -- --
2019-09-26 09:00:00 -- -- -- -- -- -- -- -- --
2019-09-26 08:00:00 -- -- -- -- -- -- -- -- --
2019-09-26 07:00:00 -- -- -- -- -- -- -- -- --
2019-09-26 06:00:00 -- -- -- -- -- -- -- -- --
2019-09-26 05:00:00 -- -- -- -- -- -- -- -- --
2019-09-26 04:00:00 -- -- -- -- -- -- -- -- --
2019-09-26 03:00:00 -- -- -- -- -- -- -- -- --
2019-09-26 02:00:00 -- -- -- -- -- -- -- -- --
2019-09-26 01:00:00 -- -- -- -- -- -- -- -- --
2019-09-26 00:00:00 -- -- -- -- -- -- -- -- --
2019-09-25 23:00:00 -- -- -- -- -- -- -- -- --
2019-09-25 22:00:00 -- -- -- -- -- -- -- -- --
2019-09-25 21:00:00 -- -- -- -- -- -- -- -- --
2019-09-25 20:00:00 -- -- -- -- -- -- -- -- --
2019-09-25 19:00:00 -- -- -- -- -- -- -- -- --
2019-09-25 18:00:00 -- -- -- -- -- -- -- -- --
2019-09-25 17:00:00 -- -- -- -- -- -- -- -- --
2019-09-25 16:00:00 -- -- -- -- -- -- -- -- --
2019-09-25 15:00:00 -- -- -- -- -- -- -- -- --
2019-09-25 14:00:00 -- -- -- -- -- -- -- -- --
2019-09-25 13:00:00 -- -- -- -- -- -- -- -- --
2019-09-25 12:00:00 -- -- -- -- -- -- -- -- --
2019-09-25 11:00:00 -- -- -- -- -- -- -- -- --
2019-09-25 10:00:00 -- -- -- -- -- -- -- -- --
2019-09-25 09:00:00 -- -- -- -- -- -- -- -- --
2019-09-25 08:00:00 -- -- -- -- -- -- -- -- --
2019-09-25 07:00:00 -- -- -- -- -- -- -- -- --
2019-09-25 06:00:00 -- -- -- -- -- -- -- -- --
2019-09-25 05:00:00 -- -- -- -- -- -- -- -- --
2019-09-25 04:00:00 -- -- -- -- -- -- -- -- --
2019-09-25 03:00:00 -- -- -- -- -- -- -- -- --
2019-09-25 02:00:00 -- -- -- -- -- -- -- -- --
2019-09-25 01:00:00 -- -- -- -- -- -- -- -- --
2019-09-25 00:00:00 -- -- -- -- -- -- -- -- --
2019-09-24 23:00:00 -- -- -- -- -- -- -- -- --
2019-09-24 22:00:00 -- -- -- -- -- -- -- -- --
2019-09-24 21:00:00 -- -- -- -- -- -- -- -- --
2019-09-24 20:00:00 -- -- -- -- -- -- -- -- --
2019-09-24 19:00:00 -- -- -- -- -- -- -- -- --
2019-09-24 18:00:00 -- -- -- -- -- -- -- -- --
2019-09-24 17:00:00 -- -- -- -- -- -- -- -- --
2019-09-24 16:00:00 -- -- -- -- -- -- -- -- --
2019-09-24 15:00:00 -- -- -- -- -- -- -- -- --
2019-09-24 14:00:00 -- -- -- -- -- -- -- -- --
2019-09-24 13:00:00 -- -- -- -- -- -- -- -- --
2019-09-24 12:00:00 -- -- -- -- -- -- -- -- --
2019-09-24 11:00:00 -- -- -- -- -- -- -- -- --
2019-09-24 10:00:00 -- -- -- -- -- -- -- -- --
2019-09-24 09:00:00 -- -- -- -- -- -- -- -- --
2019-09-24 08:00:00 -- -- -- -- -- -- -- -- --
2019-09-24 07:00:00 -- -- -- -- -- -- -- -- --
2019-09-24 06:00:00 -- -- -- -- -- -- -- -- --
2019-09-24 05:00:00 -- -- -- -- -- -- -- -- --
2019-09-24 04:00:00 -- -- -- -- -- -- -- -- --
2019-09-24 03:00:00 -- -- -- -- -- -- -- -- --
2019-09-24 02:00:00 -- -- -- -- -- -- -- -- --
2019-09-24 01:00:00 -- -- -- -- -- -- -- -- --
2019-09-24 00:00:00 -- -- -- -- -- -- -- -- --
2019-09-23 23:00:00 -- -- -- -- -- -- -- -- --
2019-09-23 22:00:00 -- -- -- -- -- -- -- -- --
2019-09-23 21:00:00 -- -- -- -- -- -- -- -- --
2019-09-23 20:00:00 -- -- -- -- -- -- -- -- --
2019-09-23 19:00:00 -- -- -- -- -- -- -- -- --
2019-09-23 18:00:00 -- -- -- -- -- -- -- -- --
2019-09-23 17:00:00 -- -- -- -- -- -- -- -- --
2019-09-23 16:00:00 -- -- -- -- -- -- -- -- --
2019-09-23 15:00:00 -- -- -- -- -- -- -- -- --
2019-09-23 14:00:00 -- -- -- -- -- -- -- -- --
2019-09-23 13:00:00 -- -- -- -- -- -- -- -- --
2019-09-23 12:00:00 -- -- -- -- -- -- -- -- --
2019-09-23 11:00:00 -- -- -- -- -- -- -- -- --
2019-09-23 10:00:00 -- -- -- -- -- -- -- -- --
2019-09-23 09:00:00 -- -- -- -- -- -- -- -- --
2019-09-23 08:00:00 -- -- -- -- -- -- -- -- --
2019-09-23 07:00:00 -- -- -- -- -- -- -- -- --
2019-09-23 06:00:00 -- -- -- -- -- -- -- -- --
2019-09-23 05:00:00 -- -- -- -- -- -- -- -- --
2019-09-23 04:00:00 -- -- -- -- -- -- -- -- --
2019-09-23 03:00:00 -- -- -- -- -- -- -- -- --
2019-09-23 02:00:00 -- -- -- -- -- -- -- -- --
2019-09-23 01:00:00 -- -- -- -- -- -- -- -- --
2019-09-23 00:00:00 -- -- -- -- -- -- -- -- --
2019-09-22 23:00:00 -- -- -- -- -- -- -- -- --
2019-09-22 22:00:00 -- -- -- -- -- -- -- -- --
2019-09-22 21:00:00 -- -- -- -- -- -- -- -- --
2019-09-22 20:00:00 -- -- -- -- -- -- -- -- --
2019-09-22 19:00:00 -- -- -- -- -- -- -- -- --
2019-09-22 18:00:00 -- -- -- -- -- -- -- -- --
2019-09-22 17:00:00 -- -- -- -- -- -- -- -- --
2019-09-22 16:00:00 -- -- -- -- -- -- -- -- --
2019-09-22 15:00:00 -- -- -- -- -- -- -- -- --
2019-09-22 14:00:00 -- -- -- -- -- -- -- -- --
2019-09-22 13:00:00 -- -- -- -- -- -- -- -- --
2019-09-22 12:00:00 -- -- -- -- -- -- -- -- --
2019-09-22 11:00:00 -- -- -- -- -- -- -- -- --
2019-09-22 10:00:00 -- -- -- -- -- -- -- -- --
2019-09-22 09:00:00 -- -- -- -- -- -- -- -- --
2019-09-22 08:00:00 -- -- -- -- -- -- -- -- --
2019-09-22 07:00:00 -- -- -- -- -- -- -- -- --
2019-09-22 06:00:00 -- -- -- -- -- -- -- -- --
2019-09-22 05:00:00 -- -- -- -- -- -- -- -- --
2019-09-22 04:00:00 -- -- -- -- -- -- -- -- --
2019-09-22 03:00:00 -- -- -- -- -- -- -- -- --
2019-09-22 02:00:00 -- -- -- -- -- -- -- -- --
2019-09-22 01:00:00 -- -- -- -- -- -- -- -- --
2019-09-22 00:00:00 -- -- -- -- -- -- -- -- --
2019-09-21 23:00:00 -- -- -- -- -- -- -- -- --
2019-09-21 22:00:00 -- -- -- -- -- -- -- -- --
2019-09-21 21:00:00 -- -- -- -- -- -- -- -- --
2019-09-21 20:00:00 -- -- -- -- -- -- -- -- --
2019-09-21 19:00:00 -- -- -- -- -- -- -- -- --
2019-09-21 18:00:00 -- -- -- -- -- -- -- -- --
2019-09-21 17:00:00 -- -- -- -- -- -- -- -- --
2019-09-21 16:00:00 -- -- -- -- -- -- -- -- --
2019-09-21 15:00:00 -- -- -- -- -- -- -- -- --
2019-09-21 14:00:00 -- -- -- -- -- -- -- -- --
2019-09-21 13:00:00 -- -- -- -- -- -- -- -- --
2019-09-21 12:00:00 -- -- -- -- -- -- -- -- --
2019-09-21 11:00:00 -- -- -- -- -- -- -- -- --
2019-09-21 10:00:00 -- -- -- -- -- -- -- -- --
2019-09-21 09:00:00 -- -- -- -- -- -- -- -- --
2019-09-21 08:00:00 19.8 5 Norte -- -- -- -- -- 95
2019-09-21 07:00:00 21.9 3 Este 26 Nordeste 5.1 -- -- 95
2019-09-21 06:00:00 22.1 12 Nordeste 31 Nordeste 0.8 -- -- 94
2019-09-21 05:00:00 22.7 9 Nordeste 20 Nordeste 0 -- -- 91
2019-09-21 04:00:00 22.7 5 Nordeste 14 Nordeste 0 -- -- 91
2019-09-21 03:00:00 22.4 2 Este 16 Nordeste 0 -- -- 85
2019-09-21 02:00:00 22.2 2 Este 16 Nordeste 0 -- -- 87
2019-09-21 01:00:00 22.3 4 Nordeste 14 Nordeste 0 -- -- 87
2019-09-21 00:00:00 22.2 3 Este 14 Nordeste 0 -- -- 88
2019-09-20 23:00:00 22.4 6 Nordeste 13 Nordeste 0 -- -- 87
2019-09-20 22:00:00 22.5 2 Nordeste 8 Este 0 -- -- 87
2019-09-20 21:00:00 22.3 0 Calma 7 Sudeste 0 -- -- 86
2019-09-20 20:00:00 22.6 7 Sudeste 13 Sudeste 0 -- -- 85
2019-09-20 19:00:00 23.4 2 Sudeste 17 Este 0 -- -- 77
2019-09-20 18:00:00 24.4 8 Sudeste 19 Sudeste 0 -- -- 72
2019-09-20 17:00:00 24.2 2 Este 17 Sudeste 0 -- -- 77
2019-09-20 16:00:00 24.1 2 Este 18 Nordeste 0 -- -- 80
2019-09-20 15:00:00 24.5 5 Este 19 Nordeste 0 -- -- 77
2019-09-20 14:00:00 24.7 5 Este 20 Nordeste 0 -- -- 76
2019-09-20 13:00:00 24.4 5 Este 24 Nordeste 0 -- -- 81
2019-09-20 12:00:00 24.2 6 Este 20 Nordeste 0 -- -- 82
2019-09-20 11:00:00 23.3 4 Este 16 Nordeste 0 -- -- 87
2019-09-20 10:00:00 23.6 0 Calma 10 Nordeste 0 -- -- 85
2019-09-20 09:00:00 22.6 0 Calma 10 Nordeste 0 -- -- 89
2019-09-20 08:00:00 22.3 3 Nordeste 10 Nordeste 0 -- -- 91
2019-09-20 07:00:00 22.1 2 Nordeste 8 Nordeste 0 -- -- 91
2019-09-20 06:00:00 22.3 0 Calma 6 Nordeste 0 -- -- 92
2019-09-20 05:00:00 22.2 0 Calma 9 Nordeste 0 -- -- 92
2019-09-20 04:00:00 22.2 0 Calma 7 Nordeste 0 -- -- 92
2019-09-20 03:00:00 22.5 0 Calma 7 Nordeste 0 -- -- 91
2019-09-20 02:00:00 22.6 3 Nordeste 9 Nordeste 0 -- -- 89
2019-09-20 01:00:00 22.6 2 Nordeste 10 Nordeste 0 -- -- 87
2019-09-20 00:00:00 22.4 4 Nordeste 12 Nordeste 0 -- -- 86
2019-09-19 23:00:00 22.6 4 Nordeste 10 Nordeste 0 -- -- 88
2019-09-19 22:00:00 22.9 4 Nordeste 9 Nordeste 0 -- -- 89
2019-09-19 21:00:00 22.8 0 Calma -- -- 0 -- -- 88
2019-09-19 20:00:00 23.4 0 Calma -- -- 0 -- -- 86
2019-09-19 19:00:00 23.8 0 Calma 9 Sudeste 0 -- -- 83
2019-09-19 18:00:00 23.5 5 Sudeste 12 Sudeste 0 -- -- 82
2019-09-19 17:00:00 23.9 6 Sudeste 22 Sudeste 0 -- -- 78
2019-09-19 16:00:00 25.1 13 Sudeste 28 Sudeste 0 -- -- 73
2019-09-19 15:00:00 25.2 16 Sudeste 28 Sudeste 0 -- -- 69
2019-09-19 14:00:00 25.8 3 Este 23 Sudeste 0 -- -- 66
2019-09-19 13:00:00 25.8 4 Este 18 Nordeste 0 -- -- 70
2019-09-19 12:00:00 25.3 6 Nordeste 18 Nordeste 0 -- -- 68
2019-09-19 11:00:00 24.7 4 Nordeste 14 Nordeste 0 -- -- 78
2019-09-19 10:00:00 23.4 3 Nordeste 15 Norte 0 -- -- 84
2019-09-19 09:00:00 22 6 Norte 11 Norte 0 -- -- 92
2019-09-19 08:00:00 21.5 0 Calma 9 Norte 0 -- -- 96
2019-09-19 07:00:00 21.3 2 Noroeste 5 Norte 0 -- -- 96
2019-09-19 06:00:00 20.9 0 Calma -- -- 0 -- -- 94
2019-09-19 05:00:00 20.8 0 Calma 9 Sudeste 0 -- -- 94
2019-09-19 04:00:00 20.9 0 Calma 8 Noroeste 0 -- -- 93
2019-09-19 03:00:00 21.6 4 Oeste 9 Oeste 0 -- -- 94
2019-09-19 02:00:00 22 3 Oeste 10 Noroeste 0 -- -- 94
2019-09-19 01:00:00 22.3 2 Noroeste 8 Norte 0 -- -- 94
2019-09-19 00:00:00 22.5 0 Calma 4 Nordeste 0 -- -- 93
2019-09-18 23:00:00 22.3 0 Calma 10 Noroeste 0 -- -- 93
2019-09-18 22:00:00 23 3 Nordeste 14 Nordeste 0 -- -- 91
2019-09-18 21:00:00 23.7 0 Calma 8 Sudoeste 0 -- -- 89
2019-09-18 20:00:00 24.5 0 Calma 11 Sudeste 0 -- -- 85
2019-09-18 19:00:00 25 0 Calma 4 Noroeste 0 -- -- 79
2019-09-18 18:00:00 26 3 Oeste 11 Sudoeste 0 -- -- 70
2019-09-18 17:00:00 26.1 9 Sudoeste 18 Sur 0 -- -- 69
2019-09-18 16:00:00 27.1 13 Sur 23 Sur 0 -- -- 61
2019-09-18 15:00:00 27.8 17 Sudeste 25 Este 0 -- -- 59
2019-09-18 14:00:00 29.7 3 Nordeste 18 Norte 0 -- -- 45
2019-09-18 13:00:00 28.5 12 Norte 21 Norte 0 -- -- 48
2019-09-18 12:00:00 26.4 10 Norte 23 Norte 0 -- -- 55
2019-09-18 11:00:00 24.6 11 Norte 25 Norte 0 -- -- 59
2019-09-18 10:00:00 21.8 3 Noroeste 11 Oeste 0 -- -- 77
2019-09-18 09:00:00 20 3 Noroeste 8 Norte 0 -- -- 87
2019-09-18 08:00:00 18.6 2 Oeste 10 Noroeste 0 -- -- 94
2019-09-18 07:00:00 19.4 4 Oeste 12 Oeste 0 -- -- 94
2019-09-18 06:00:00 20.1 0 Calma 9 Oeste 0 -- -- 94
2019-09-18 05:00:00 20.6 0 Calma 10 Noroeste 0 -- -- 94
2019-09-18 04:00:00 20.4 5 Noroeste 12 Noroeste 0 -- -- 94
2019-09-18 03:00:00 20.9 6 Oeste 12 Oeste 0 -- -- 94
2019-09-18 02:00:00 20.8 0 Calma 8 Nordeste 0 -- -- 94
2019-09-18 01:00:00 21.4 3 Norte 12 Nordeste 0 -- -- 94
2019-09-18 00:00:00 21.6 0 Calma 8 Sudoeste 0 -- -- 94
2019-09-17 23:00:00 21.3 5 Sur 7 Sur 0 -- -- 93
2019-09-17 22:00:00 21.9 5 Sur 6 Sur 0 -- -- 90
2019-09-17 21:00:00 22.2 4 Sur 9 Sur 0 -- -- 87
2019-09-15 18:00:00 24.4 3 Este 22 Nordeste 0 -- -- 89
2019-09-15 17:00:00 24.9 6 Este 24 Nordeste 0 -- -- 87
2019-09-15 16:00:00 25.8 10 Nordeste 37 Nordeste 0 -- -- 83
2019-09-15 15:00:00 25.5 10 Nordeste 33 Nordeste 0 -- -- 79
2019-09-15 14:00:00 25.2 15 Nordeste 38 Nordeste 0 -- -- 75
2019-09-15 13:00:00 25 14 Nordeste 32 Nordeste 0 -- -- 70
2019-09-15 12:00:00 24.7 14 Nordeste 32 Nordeste 0 -- -- 67
2019-09-15 11:00:00 23.8 9 Nordeste 31 Nordeste 0 -- -- 67
2019-09-15 10:00:00 24.1 8 Nordeste 31 Nordeste 0 -- -- 71
2019-09-15 09:00:00 23.2 11 Nordeste 28 Nordeste 0 -- -- 68
2019-09-15 08:00:00 22.3 9 Nordeste 23 Nordeste 0 -- -- 69
2019-09-15 07:00:00 22.3 10 Nordeste 27 Nordeste 0 -- -- 69
2019-09-15 06:00:00 22.3 9 Nordeste 31 Nordeste 0 -- -- 71
2019-09-15 05:00:00 22.2 10 Nordeste 32 Nordeste 0 -- -- 91
2019-09-15 04:00:00 22.2 7 Nordeste 19 Nordeste 0 -- -- 92
2019-09-15 03:00:00 22.4 4 Este 21 Sudeste 0 -- -- 91
2019-09-15 02:00:00 22.3 9 Nordeste 32 Nordeste 0 -- -- 89
2019-09-15 01:00:00 22.1 7 Nordeste 17 Nordeste 0 -- -- 87
2019-09-15 00:00:00 22.2 0 Calma 15 Nordeste 0 -- -- 86
2019-09-14 23:00:00 22.4 6 Nordeste 22 Nordeste 0 -- -- 84
2019-09-14 22:00:00 22.5 5 Nordeste 13 Nordeste 0 -- -- 86
2019-09-14 21:00:00 23 3 Nordeste 10 Nordeste 0 -- -- 82
2019-09-14 20:00:00 24.1 0 Calma 6 Nordeste 0 -- -- 77
2019-09-14 19:00:00 24.3 0 Calma 15 Nordeste 0 -- -- 71
2019-09-14 18:00:00 25.3 3 Nordeste 18 Nordeste 0 -- -- 65
2019-09-14 17:00:00 25.7 5 Nordeste 22 Nordeste 0 -- -- 65
2019-09-14 16:00:00 25 7 Nordeste 25 Nordeste 0 -- -- 62
2019-09-14 15:00:00 25 8 Este 32 Nordeste 0 -- -- 64
2019-09-14 14:00:00 24.5 11 Nordeste 37 Nordeste 0 -- -- 67
2019-09-14 13:00:00 23.9 13 Nordeste 38 Nordeste 0 -- -- 65
2019-09-14 12:00:00 22.3 6 Norte 15 Norte 0 -- -- 80
2019-09-14 11:00:00 21.8 5 Noroeste 13 Noroeste 0 -- -- 86
2019-09-14 10:00:00 21.1 5 Noroeste 17 Noroeste 0 -- -- 85
2019-09-14 09:00:00 19.5 5 Noroeste 16 Noroeste 0 -- -- 91
2019-09-14 08:00:00 17.7 5 Noroeste 14 Noroeste 0 -- -- 91
2019-09-14 07:00:00 17.7 6 Noroeste 13 Noroeste 0 -- -- 91
2019-09-14 06:00:00 18.5 9 Noroeste 15 Noroeste 0 -- -- 92
2019-09-14 05:00:00 18 5 Noroeste 12 Noroeste 0 -- -- 93
2019-09-14 04:00:00 18.2 7 Noroeste 16 Noroeste 0 -- -- 93
2019-09-14 03:00:00 18.7 8 Noroeste 14 Norte 0 -- -- 93
2019-09-14 02:00:00 18.6 7 Norte 15 Norte 0 -- -- 93
2019-09-14 01:00:00 18.2 5 Noroeste 16 Noroeste 0 -- -- 93
2019-09-14 00:00:00 19 10 Norte 28 Norte 0.5 -- -- 89